createdAt,value
2016-09-07T00:00:26.134Z,52.57
2016-09-07T00:01:26.161Z,52.48
2016-09-07T00:02:26.176Z,52.67
2016-09-07T00:03:26.199Z,52.57
2016-09-07T00:04:26.224Z,52.57
2016-09-07T00:05:26.247Z,52.57
2016-09-07T00:06:26.266Z,52.57
2016-09-07T00:07:26.294Z,52.57
2016-09-07T00:08:26.312Z,52.67
2016-09-07T00:09:26.336Z,52.74
2016-09-07T00:10:26.373Z,52.93
2016-09-07T00:11:26.380Z,52.55
2016-09-07T00:12:26.403Z,52.83
2016-09-07T00:13:26.427Z,52.83
2016-09-07T00:14:26.449Z,52.93
2016-09-07T00:15:26.472Z,52.83
2016-09-07T00:16:26.495Z,53.12
2016-09-07T00:17:26.516Z,53.03
2016-09-07T00:18:26.544Z,53.03
2016-09-07T00:19:26.567Z,53.12
2016-09-07T00:20:26.938Z,53.03
2016-09-07T00:21:26.608Z,53.03
2016-09-07T00:22:26.632Z,52.93
2016-09-07T00:23:26.653Z,53.41
2016-09-07T00:24:26.676Z,52.83
2016-09-07T00:25:26.698Z,53.41
2016-09-07T00:26:26.725Z,52.93
2016-09-07T00:27:26.743Z,53.31
2016-09-07T00:28:26.765Z,53.31
2016-09-07T00:29:26.905Z,53.41
2016-09-07T00:30:26.810Z,52.83
2016-09-07T00:31:26.835Z,53.31
2016-09-07T00:32:26.915Z,53.31
2016-09-07T00:33:26.923Z,53.79
2016-09-07T00:34:26.932Z,53.5
2016-09-07T00:35:26.941Z,53.7
2016-09-07T00:36:26.949Z,52.64
2016-09-07T00:37:27.084Z,53.03
2016-09-07T00:38:27.094Z,53.6
2016-09-07T00:39:27.126Z,53.6
2016-09-07T00:40:27.134Z,53.6
2016-09-07T00:41:27.142Z,53.79
2016-09-07T00:42:27.142Z,53.12
2016-09-07T00:43:27.152Z,53.89
2016-09-07T00:44:27.201Z,53.7
2016-09-07T00:45:27.210Z,53.99
2016-09-07T00:46:27.208Z,53.89
2016-09-07T00:47:27.216Z,53.38
2016-09-07T00:48:27.225Z,54.27
2016-09-07T00:49:27.239Z,54.15
2016-09-07T00:50:27.262Z,54.05
2016-09-07T00:51:27.285Z,54.17
2016-09-07T00:52:27.305Z,54.08
2016-09-07T00:53:27.331Z,53.86
2016-09-07T00:54:27.352Z,54.17
2016-09-07T00:55:27.378Z,54.05
2016-09-07T00:56:27.398Z,54.34
2016-09-07T00:57:27.421Z,53.86
2016-09-07T00:58:27.446Z,54.05
2016-09-07T00:59:27.467Z,53.96
2016-09-07T01:00:27.490Z,54.72
2016-09-07T01:01:27.511Z,53.58
2016-09-07T01:02:27.537Z,54.34
2016-09-07T01:03:27.552Z,54.34
2016-09-07T01:04:27.579Z,53.58
2016-09-07T01:05:27.599Z,54.44
2016-09-07T01:06:27.626Z,54.44
2016-09-07T01:07:27.648Z,54.24
2016-09-07T01:08:27.668Z,54.44
2016-09-07T01:09:27.697Z,53.77
2016-09-07T01:10:27.714Z,53.86
2016-09-07T01:11:27.741Z,54.34
2016-09-07T01:12:27.757Z,54.91
2016-09-07T01:13:27.776Z,54.91
2016-09-07T01:14:27.797Z,54.72
2016-09-07T01:15:27.821Z,54.53
2016-09-07T01:16:27.844Z,53.86
2016-09-07T01:17:27.867Z,54.44
2016-09-07T01:18:27.893Z,54.44
2016-09-07T01:19:27.909Z,54.44
2016-09-07T01:20:27.941Z,55.01
2016-09-07T01:21:27.955Z,54.24
2016-09-07T01:22:27.978Z,54.91
2016-09-07T01:23:27.999Z,54.91
2016-09-07T01:24:28.021Z,54.91
2016-09-07T01:25:28.045Z,54.63
2016-09-07T01:26:28.074Z,54.82
2016-09-07T01:27:28.091Z,54.53
2016-09-07T01:28:28.111Z,54.82
2016-09-07T01:29:28.133Z,54.91
2016-09-07T01:30:28.157Z,54.82
2016-09-07T01:31:28.178Z,55.01
2016-09-07T01:32:28.199Z,55.01
2016-09-07T01:33:28.225Z,54.15
2016-09-07T01:34:28.246Z,54.72
2016-09-07T01:35:28.268Z,54.91
2016-09-07T01:36:28.298Z,54.72
2016-09-07T01:37:28.311Z,54.82
2016-09-07T01:38:28.349Z,55.21
2016-09-07T01:39:28.354Z,54.72
2016-09-07T01:40:28.378Z,54.82
2016-09-07T01:41:28.396Z,55.11
2016-09-07T01:42:28.426Z,55.4
2016-09-07T01:43:28.442Z,55.21
2016-09-07T01:44:28.468Z,55.21
2016-09-07T01:45:28.489Z,55.21
2016-09-07T01:46:28.510Z,55.3
2016-09-07T01:47:28.533Z,55.21
2016-09-07T01:48:28.552Z,55.58
2016-09-07T01:49:28.578Z,55.27
2016-09-07T01:50:28.597Z,55.01
2016-09-07T01:51:28.618Z,55.4
2016-09-07T01:52:28.643Z,55.46
2016-09-07T01:53:28.663Z,54.7
2016-09-07T01:54:28.685Z,55.56
2016-09-07T01:55:28.710Z,55.08
2016-09-07T01:56:28.728Z,55.65
2016-09-07T01:57:28.758Z,55.08
2016-09-07T01:58:28.892Z,55.56
2016-09-07T01:59:28.913Z,55.36
2016-09-07T02:00:28.931Z,55.56
2016-09-07T02:01:29.046Z,55.46
2016-09-07T02:02:29.061Z,55.56
2016-09-07T02:03:29.069Z,55.56
2016-09-07T02:04:29.080Z,55.75
2016-09-07T02:05:29.086Z,55.85
2016-09-07T02:06:29.086Z,55.46
2016-09-07T02:07:29.230Z,55.36
2016-09-07T02:08:29.104Z,55.85
2016-09-07T02:09:29.113Z,56.04
2016-09-07T02:10:29.254Z,55.85
2016-09-07T02:11:29.255Z,56.04
2016-09-07T02:12:29.268Z,55.94
2016-09-07T02:13:29.177Z,55.56
2016-09-07T02:14:29.225Z,55.65
2016-09-07T02:15:29.225Z,55.75
2016-09-07T02:16:29.251Z,55.85
2016-09-07T02:17:29.268Z,55.56
2016-09-07T02:18:29.273Z,55.56
2016-09-07T02:19:29.286Z,55.65
2016-09-07T02:20:29.279Z,56.13
2016-09-07T02:21:29.297Z,56.13
2016-09-07T02:22:29.302Z,56.04
2016-09-07T02:23:29.323Z,55.65
2016-09-07T02:24:29.346Z,55.85
2016-09-07T02:25:29.367Z,56.04
2016-09-07T02:26:29.392Z,55.85
2016-09-07T02:27:29.409Z,56.13
2016-09-07T02:28:29.453Z,56.23
2016-09-07T02:29:29.454Z,55.75
2016-09-07T02:30:29.474Z,56.13
2016-09-07T02:31:29.498Z,56.23
2016-09-07T02:32:29.516Z,56.32
2016-09-07T02:33:29.538Z,56.23
2016-09-07T02:34:29.564Z,56.13
2016-09-07T02:35:29.582Z,56.13
2016-09-07T02:36:29.608Z,56.42
2016-09-07T02:37:29.628Z,56.13
2016-09-07T02:38:29.652Z,56.32
2016-09-07T02:39:29.680Z,56.32
2016-09-07T02:40:29.694Z,56.99
2016-09-07T02:41:29.715Z,56.42
2016-09-07T02:42:29.745Z,56.9
2016-09-07T02:43:29.758Z,56.23
2016-09-07T02:44:29.782Z,55.82
2016-09-07T02:45:29.804Z,56.71
2016-09-07T02:46:29.825Z,56.42
2016-09-07T02:47:29.856Z,56.2
2016-09-07T02:48:29.866Z,56.99
2016-09-07T02:49:29.890Z,56.01
2016-09-07T02:50:29.912Z,56.49
2016-09-07T02:51:29.935Z,56.99
2016-09-07T02:52:29.959Z,56.52
2016-09-07T02:53:29.977Z,56.61
2016-09-07T02:54:29.999Z,56.61
2016-09-07T02:55:30.018Z,56.81
2016-09-07T02:56:30.042Z,56.68
2016-09-07T02:57:30.066Z,56.71
2016-09-07T02:58:30.093Z,56.61
2016-09-07T02:59:30.108Z,57.06
2016-09-07T03:00:30.131Z,56.39
2016-09-07T03:01:30.152Z,56.59
2016-09-07T03:02:30.173Z,56.81
2016-09-07T03:03:30.194Z,57.16
2016-09-07T03:04:30.223Z,57.54
2016-09-07T03:05:30.240Z,56.97
2016-09-07T03:06:30.260Z,56.68
2016-09-07T03:07:30.281Z,57.35
2016-09-07T03:08:30.301Z,57.35
2016-09-07T03:09:30.319Z,57.35
2016-09-07T03:10:30.344Z,56.97
2016-09-07T03:11:30.366Z,56.97
2016-09-07T03:12:30.388Z,56.97
2016-09-07T03:13:30.413Z,56.59
2016-09-07T03:14:30.433Z,56.97
2016-09-07T03:15:30.453Z,57.16
2016-09-07T03:16:30.471Z,56.77
2016-09-07T03:17:30.496Z,56.97
2016-09-07T03:18:30.515Z,57.06
2016-09-07T03:19:30.538Z,57.06
2016-09-07T03:20:30.565Z,57.16
2016-09-07T03:21:30.586Z,56.87
2016-09-07T03:22:30.603Z,56.87
2016-09-07T03:23:30.623Z,57.16
2016-09-07T03:24:30.646Z,57.16
2016-09-07T03:25:30.664Z,57.16
2016-09-07T03:26:30.691Z,57.26
2016-09-07T03:27:30.712Z,57.26
2016-09-07T03:28:30.733Z,57.26
2016-09-07T03:29:30.757Z,57.26
2016-09-07T03:30:30.776Z,57.45
2016-09-07T03:31:30.801Z,57.06
2016-09-07T03:32:30.820Z,57.26
2016-09-07T03:33:30.857Z,57.26
2016-09-07T03:34:30.861Z,57.45
2016-09-07T03:35:30.884Z,57.26
2016-09-07T03:36:30.904Z,57.35
2016-09-07T03:37:30.925Z,57.45
2016-09-07T03:38:30.944Z,57.16
2016-09-07T03:39:30.969Z,57.45
2016-09-07T03:40:31.310Z,57.35
2016-09-07T03:41:31.066Z,57.35
2016-09-07T03:42:31.032Z,57.54
2016-09-07T03:43:31.052Z,57.26
2016-09-07T03:44:31.078Z,57.73
2016-09-07T03:45:31.098Z,57.54
2016-09-07T03:46:31.123Z,57.73
2016-09-07T03:47:31.139Z,57.26
2016-09-07T03:48:31.166Z,57.64
2016-09-07T03:49:31.185Z,57.54
2016-09-07T03:50:31.206Z,57.16
2016-09-07T03:51:31.224Z,57.54
2016-09-07T03:52:31.248Z,57.54
2016-09-07T03:53:31.268Z,57.83
2016-09-07T03:54:31.294Z,57.45
2016-09-07T03:55:31.313Z,57.45
2016-09-07T03:56:31.330Z,57.83
2016-09-07T03:57:31.353Z,57.64
2016-09-07T03:58:31.371Z,57.83
2016-09-07T03:59:31.397Z,57.64
2016-09-07T04:00:31.419Z,57.83
2016-09-07T04:01:31.439Z,57.54
2016-09-07T04:02:31.467Z,57.51
2016-09-07T04:03:31.483Z,57.73
2016-09-07T04:04:31.511Z,58.02
2016-09-07T04:05:31.525Z,58.02
2016-09-07T04:06:31.543Z,58.22
2016-09-07T04:07:31.568Z,57.92
2016-09-07T04:08:31.590Z,57.99
2016-09-07T04:09:31.613Z,58.22
2016-09-07T04:10:31.636Z,58.28
2016-09-07T04:11:31.654Z,57.92
2016-09-07T04:12:31.685Z,58.02
2016-09-07T04:13:31.696Z,58.31
2016-09-07T04:14:31.719Z,58.31
2016-09-07T04:15:31.741Z,58.22
2016-09-07T04:16:31.767Z,58.28
2016-09-07T04:17:31.783Z,58.18
2016-09-07T04:18:31.801Z,58.37
2016-09-07T04:19:31.829Z,58.37
2016-09-07T04:20:31.845Z,58.09
2016-09-07T04:21:31.869Z,58.37
2016-09-07T04:22:31.892Z,58.28
2016-09-07T04:23:31.914Z,57.99
2016-09-07T04:24:31.931Z,58.18
2016-09-07T04:25:31.954Z,57.99
2016-09-07T04:26:31.973Z,58.18
2016-09-07T04:27:31.994Z,57.99
2016-09-07T04:28:32.016Z,58.28
2016-09-07T04:29:32.036Z,58.18
2016-09-07T04:30:32.063Z,58.09
2016-09-07T04:31:32.079Z,57.99
2016-09-07T04:32:32.102Z,58.18
2016-09-07T04:33:32.122Z,58.56
2016-09-07T04:34:32.158Z,58.66
2016-09-07T04:35:32.177Z,58.18
2016-09-07T04:36:32.187Z,58.56
2016-09-07T04:37:32.203Z,58.47
2016-09-07T04:38:32.244Z,58.56
2016-09-07T04:39:32.250Z,58.28
2016-09-07T04:40:32.277Z,58.47
2016-09-07T04:41:32.293Z,58.28
2016-09-07T04:42:32.313Z,58.66
2016-09-07T04:43:32.335Z,58.56
2016-09-07T04:44:32.355Z,58.66
2016-09-07T04:45:32.382Z,58.95
2016-09-07T04:46:32.400Z,59.14
2016-09-07T04:47:32.421Z,58.18
2016-09-07T04:48:32.443Z,58.09
2016-09-07T04:49:32.463Z,58.66
2016-09-07T04:50:32.482Z,58.09
2016-09-07T04:51:32.506Z,58.95
2016-09-07T04:52:32.525Z,58.95
2016-09-07T04:53:32.546Z,59.05
2016-09-07T04:54:32.569Z,58.95
2016-09-07T04:55:32.603Z,58.86
2016-09-07T04:56:32.628Z,58.95
2016-09-07T04:57:32.631Z,58.95
2016-09-07T04:58:32.653Z,58.95
2016-09-07T04:59:32.672Z,58.86
2016-09-07T05:00:32.699Z,58.86
2016-09-07T05:01:32.717Z,58.95
2016-09-07T05:02:32.738Z,58.76
2016-09-07T05:03:32.761Z,58.76
2016-09-07T05:04:32.781Z,58.66
2016-09-07T05:05:32.805Z,58.66
2016-09-07T05:06:32.825Z,58.76
2016-09-07T05:07:32.843Z,58.86
2016-09-07T05:08:32.866Z,58.66
2016-09-07T05:09:32.886Z,58.95
2016-09-07T05:10:32.905Z,58.76
2016-09-07T05:11:32.928Z,58.66
2016-09-07T05:12:32.945Z,58.76
2016-09-07T05:13:32.966Z,58.66
2016-09-07T05:14:32.993Z,58.76
2016-09-07T05:15:33.010Z,58.76
2016-09-07T05:16:33.036Z,59.33
2016-09-07T05:17:33.056Z,59.33
2016-09-07T05:18:33.079Z,59.23
2016-09-07T05:19:33.097Z,59.33
2016-09-07T05:20:33.120Z,59.43
2016-09-07T05:21:33.143Z,59.23
2016-09-07T05:22:33.164Z,59.14
2016-09-07T05:23:33.179Z,59.14
2016-09-07T05:24:33.201Z,59.43
2016-09-07T05:25:33.224Z,59.05
2016-09-07T05:26:33.246Z,59.05
2016-09-07T05:27:33.271Z,58.95
2016-09-07T05:28:33.289Z,59.14
2016-09-07T05:29:33.316Z,59.05
2016-09-07T05:30:33.327Z,59.23
2016-09-07T05:31:33.351Z,58.95
2016-09-07T05:32:33.373Z,59.05
2016-09-07T05:33:33.395Z,59.23
2016-09-07T05:34:33.413Z,59.14
2016-09-07T05:35:33.434Z,59.05
2016-09-07T05:36:33.452Z,59.62
2016-09-07T05:37:33.475Z,59.43
2016-09-07T05:38:33.496Z,59.52
2016-09-07T05:39:33.521Z,59.43
2016-09-07T05:40:33.539Z,59.43
2016-09-07T05:41:33.560Z,59.33
2016-09-07T05:42:33.582Z,59.23
2016-09-07T05:43:33.606Z,59.23
2016-09-07T05:44:33.626Z,59.23
2016-09-07T05:45:33.645Z,59.43
2016-09-07T05:46:33.668Z,59.23
2016-09-07T05:47:33.683Z,60
2016-09-07T05:48:33.709Z,59.72
2016-09-07T05:49:33.730Z,59.72
2016-09-07T05:50:33.761Z,59.72
2016-09-07T05:51:33.771Z,59.14
2016-09-07T05:52:33.791Z,59.72
2016-09-07T05:53:33.819Z,59.62
2016-09-07T05:54:33.841Z,60.19
2016-09-07T05:55:33.855Z,60.1
2016-09-07T05:56:33.877Z,59.84
2016-09-07T05:57:33.900Z,59.52
2016-09-07T05:58:33.919Z,59.84
2016-09-07T05:59:33.940Z,59.75
2016-09-07T06:00:33.964Z,60.29
2016-09-07T06:01:33.987Z,60.61
2016-09-07T06:02:34.006Z,59.94
2016-09-07T06:03:34.026Z,59.65
2016-09-07T06:04:34.042Z,59.55
2016-09-07T06:05:34.067Z,59.65
2016-09-07T06:06:34.088Z,59.84
2016-09-07T06:07:34.110Z,59.84
2016-09-07T06:08:34.130Z,59.84
2016-09-07T06:09:34.149Z,60.22
2016-09-07T06:10:34.174Z,60.51
2016-09-07T06:11:34.197Z,59.94
2016-09-07T06:12:34.214Z,60.22
2016-09-07T06:13:34.236Z,60.13
2016-09-07T06:14:34.257Z,60.13
2016-09-07T06:15:34.279Z,60.51
2016-09-07T06:16:34.298Z,60.41
2016-09-07T06:17:34.320Z,60.7
2016-09-07T06:18:34.355Z,60.13
2016-09-07T06:19:34.364Z,60.41
2016-09-07T06:20:34.388Z,60.41
2016-09-07T06:21:34.402Z,60.64
2016-09-07T06:22:34.441Z,60.83
2016-09-07T06:23:34.444Z,61.47
2016-09-07T06:24:34.481Z,61.11
2016-09-07T06:25:34.486Z,61.6
2016-09-07T06:26:34.509Z,61.6
2016-09-07T06:27:34.537Z,61.6
2016-09-07T06:28:34.559Z,61.21
2016-09-07T06:29:34.575Z,61.5
2016-09-07T06:30:34.594Z,61.88
2016-09-07T06:31:34.616Z,62.17
2016-09-07T06:32:34.635Z,61.69
2016-09-07T06:33:34.656Z,62.17
2016-09-07T06:34:34.679Z,61.98
2016-09-07T06:35:34.701Z,62.2
2016-09-07T06:36:34.724Z,62.3
2016-09-07T06:37:34.742Z,62.1
2016-09-07T06:38:34.765Z,61.82
2016-09-07T06:39:34.781Z,61.82
2016-09-07T06:40:34.806Z,62.1
2016-09-07T06:41:34.878Z,62.59
2016-09-07T06:42:34.847Z,62.3
2016-09-07T06:43:34.873Z,62.3
2016-09-07T06:44:34.891Z,62.59
2016-09-07T06:45:34.915Z,62.3
2016-09-07T06:46:34.940Z,62.39
2016-09-07T06:47:34.957Z,62.3
2016-09-07T06:48:34.982Z,62.77
2016-09-07T06:49:35.005Z,63.19
2016-09-07T06:50:35.020Z,63.09
2016-09-07T06:51:35.040Z,62.62
2016-09-07T06:52:35.064Z,62.62
2016-09-07T06:53:35.090Z,62.23
2016-09-07T06:54:35.109Z,61.94
2016-09-07T06:55:35.131Z,62.33
2016-09-07T06:56:35.152Z,62.33
2016-09-07T06:57:35.179Z,62.33
2016-09-07T06:58:35.195Z,62.13
2016-09-07T06:59:35.219Z,62.26
2016-09-07T07:00:35.239Z,62.26
2016-09-07T07:01:35.259Z,62.36
2016-09-07T07:02:35.280Z,61.98
2016-09-07T07:03:35.300Z,62.26
2016-09-07T07:04:35.323Z,62.16
2016-09-07T07:05:35.343Z,62.26
2016-09-07T07:06:35.369Z,61.88
2016-09-07T07:07:35.704Z,62.16
2016-09-07T07:08:35.409Z,62.07
2016-09-07T07:09:35.430Z,62.1
2016-09-07T07:10:35.452Z,61.62
2016-09-07T07:11:35.476Z,61.43
2016-09-07T07:12:35.495Z,61.72
2016-09-07T07:13:35.517Z,61.24
2016-09-07T07:14:35.540Z,61.33
2016-09-07T07:15:35.564Z,61.81
2016-09-07T07:16:35.584Z,61.24
2016-09-07T07:17:35.610Z,61.33
2016-09-07T07:18:35.631Z,61.46
2016-09-07T07:19:35.651Z,61.65
2016-09-07T07:20:35.676Z,61.65
2016-09-07T07:21:35.698Z,61.55
2016-09-07T07:22:35.721Z,60.88
2016-09-07T07:23:36.053Z,60.88
2016-09-07T07:24:35.854Z,60.72
2016-09-07T07:25:35.861Z,61.08
2016-09-07T07:26:35.801Z,61.4
2016-09-07T07:27:35.825Z,60.63
2016-09-07T07:28:35.850Z,60.72
2016-09-07T07:29:35.871Z,60.34
2016-09-07T07:30:35.891Z,60.24
2016-09-07T07:31:35.914Z,60.72
2016-09-07T07:32:35.941Z,59.95
2016-09-07T07:33:35.958Z,59.99
2016-09-07T07:34:35.989Z,59.79
2016-09-07T07:35:36.004Z,59.99
2016-09-07T07:36:36.029Z,59.5
2016-09-07T07:37:36.049Z,59.41
2016-09-07T07:38:36.071Z,59.79
2016-09-07T07:39:36.094Z,59.5
2016-09-07T07:40:36.209Z,59.31
2016-09-07T07:41:36.174Z,59.34
2016-09-07T07:42:36.163Z,59.05
2016-09-07T07:43:36.185Z,59.24
2016-09-07T07:44:36.210Z,58.47
2016-09-07T07:45:36.226Z,58.47
2016-09-07T07:46:36.259Z,58.86
2016-09-07T07:47:36.273Z,58.47
2016-09-07T07:48:36.301Z,58.67
2016-09-07T07:49:36.321Z,58.57
2016-09-07T07:50:36.367Z,57.99
2016-09-07T07:51:36.367Z,58.31
2016-09-07T07:52:36.399Z,58.12
2016-09-07T07:53:36.419Z,58.02
2016-09-07T07:54:36.431Z,58.02
2016-09-07T07:55:36.459Z,57.45
2016-09-07T07:56:36.475Z,57.64
2016-09-07T07:57:36.500Z,57.73
2016-09-07T07:58:36.522Z,57.54
2016-09-07T07:59:36.551Z,57.15
2016-09-07T08:00:36.570Z,57.15
2016-09-07T08:01:36.592Z,57.28
2016-09-07T08:02:36.618Z,56.99
2016-09-07T08:03:36.639Z,57.18
2016-09-07T08:04:36.665Z,56.9
2016-09-07T08:05:36.687Z,56.12
2016-09-07T08:06:36.709Z,56.99
2016-09-07T08:07:36.730Z,56.51
2016-09-07T08:08:36.753Z,56.51
2016-09-07T08:09:36.777Z,56.54
2016-09-07T08:10:36.812Z,56.63
2016-09-07T08:11:36.827Z,56.15
2016-09-07T08:12:36.854Z,56.73
2016-09-07T08:13:36.870Z,56.05
2016-09-07T08:14:36.892Z,55.96
2016-09-07T08:15:36.916Z,55.96
2016-09-07T08:16:36.942Z,56.05
2016-09-07T08:17:36.962Z,55.89
2016-09-07T08:18:36.985Z,55.99
2016-09-07T08:19:37.012Z,55.89
2016-09-07T08:20:37.034Z,55.02
2016-09-07T08:21:37.059Z,55.31
2016-09-07T08:22:37.079Z,55.22
2016-09-07T08:23:37.106Z,55.12
2016-09-07T08:24:37.143Z,54.64
2016-09-07T08:25:37.149Z,54.76
2016-09-07T08:26:37.173Z,54.09
2016-09-07T08:27:37.195Z,54.57
2016-09-07T08:28:37.228Z,54.38
2016-09-07T08:29:37.245Z,54.18
2016-09-07T08:30:37.400Z,53.99
2016-09-07T08:31:37.289Z,54.18
2016-09-07T08:32:37.317Z,52.86
2016-09-07T08:33:37.338Z,53.44
2016-09-07T08:34:37.363Z,53.25
2016-09-07T08:35:37.388Z,53.44
2016-09-07T08:36:37.543Z,53.53
2016-09-07T08:37:37.437Z,52.95
2016-09-07T08:38:37.459Z,52.67
2016-09-07T08:39:37.481Z,52.67
2016-09-07T08:40:37.507Z,52.98
2016-09-07T08:41:37.532Z,53.08
2016-09-07T08:42:37.556Z,52.69
2016-09-07T08:43:37.580Z,52.4
2016-09-07T08:44:37.602Z,52.4
2016-09-07T08:45:37.635Z,52.01
2016-09-07T08:46:37.651Z,51.82
2016-09-07T08:47:37.676Z,52.21
2016-09-07T08:48:37.702Z,51.82
2016-09-07T08:49:37.726Z,51.65
2016-09-07T08:50:37.749Z,51.17
2016-09-07T08:51:37.785Z,51.07
2016-09-07T08:52:37.843Z,51.17
2016-09-07T08:53:37.821Z,51.17
2016-09-07T08:54:37.844Z,51.37
2016-09-07T08:55:37.872Z,51.37
2016-09-07T08:56:37.894Z,51.17
2016-09-07T08:57:37.922Z,50.91
2016-09-07T08:58:37.945Z,50.71
2016-09-07T08:59:37.967Z,50.33
2016-09-07T09:00:37.995Z,50.33
2016-09-07T09:01:38.021Z,51.2
2016-09-07T09:02:38.044Z,50.33
2016-09-07T09:03:38.065Z,50.13
2016-09-07T09:04:38.092Z,50.04
2016-09-07T09:05:38.120Z,49.95
2016-09-07T09:06:38.143Z,49.87
2016-09-07T09:07:38.168Z,49.68
2016-09-07T09:08:38.192Z,49.68
2016-09-07T09:09:38.216Z,49.68
2016-09-07T09:10:38.239Z,49.77
2016-09-07T09:11:38.266Z,49.58
2016-09-07T09:12:38.299Z,49.68
2016-09-07T09:13:38.316Z,49.77
2016-09-07T09:14:38.340Z,49.22
2016-09-07T09:15:38.373Z,49.02
2016-09-07T09:16:38.390Z,48.83
2016-09-07T09:17:38.416Z,48.83
2016-09-07T09:18:38.443Z,48.83
2016-09-07T09:19:38.470Z,48.25
2016-09-07T09:20:38.492Z,48.47
2016-09-07T09:21:38.515Z,47.89
2016-09-07T09:22:38.545Z,47.99
2016-09-07T09:23:38.570Z,47.79
2016-09-07T09:24:38.602Z,47.99
2016-09-07T09:25:38.625Z,47.91
2016-09-07T09:26:38.643Z,47.52
2016-09-07T09:27:38.669Z,47.62
2016-09-07T09:28:38.695Z,47.43
2016-09-07T09:29:38.715Z,46.94
2016-09-07T09:30:38.746Z,46.94
2016-09-07T09:31:38.776Z,46.67
2016-09-07T09:32:38.795Z,46.39
2016-09-07T09:33:38.821Z,46
2016-09-07T09:34:38.846Z,45.71
2016-09-07T09:35:38.874Z,45.61
2016-09-07T09:36:38.899Z,45.34
2016-09-07T09:37:38.943Z,45.25
2016-09-07T09:38:38.956Z,45.05
2016-09-07T09:39:38.978Z,45.15
2016-09-07T09:40:39.004Z,45.25
2016-09-07T09:41:39.080Z,45.15
2016-09-07T09:42:39.056Z,45.05
2016-09-07T09:43:39.083Z,44.88
2016-09-07T09:44:39.107Z,44.88
2016-09-07T09:45:39.137Z,44.3
2016-09-07T09:46:39.175Z,44.2
2016-09-07T09:47:39.186Z,44.4
2016-09-07T09:48:39.215Z,44.4
2016-09-07T09:49:39.246Z,44.49
2016-09-07T09:50:39.581Z,44.49
2016-09-07T09:51:39.293Z,44.03
2016-09-07T09:52:39.434Z,43.84
2016-09-07T09:53:39.569Z,43.74
2016-09-07T09:54:39.581Z,43.74
2016-09-07T09:55:39.583Z,43.45
2016-09-07T09:56:39.626Z,44.03
2016-09-07T09:57:39.635Z,43.45
2016-09-07T09:58:39.643Z,43.47
2016-09-07T09:59:39.649Z,43.76
2016-09-07T10:00:39.659Z,43.37
2016-09-07T10:01:39.670Z,43.57
2016-09-07T10:02:39.643Z,43.1
2016-09-07T10:03:39.610Z,42.61
2016-09-07T10:04:39.640Z,42.81
2016-09-07T10:05:39.662Z,42.52
2016-09-07T10:06:39.695Z,42.33
2016-09-07T10:07:39.722Z,41.84
2016-09-07T10:08:39.747Z,41.67
2016-09-07T10:09:39.772Z,41.57
2016-09-07T10:10:39.802Z,41.38
2016-09-07T10:11:39.825Z,41.57
2016-09-07T10:12:39.854Z,41.18
2016-09-07T10:13:39.888Z,41.08
2016-09-07T10:14:39.907Z,41.18
2016-09-07T10:15:39.934Z,40.79
2016-09-07T10:16:39.960Z,40.79
2016-09-07T10:17:39.989Z,40.99
2016-09-07T10:18:40.032Z,41.2
2016-09-07T10:19:40.046Z,41.3
2016-09-07T10:20:40.072Z,41.59
2016-09-07T10:21:40.101Z,41.3
2016-09-07T10:22:40.128Z,40.93
2016-09-07T10:23:40.157Z,40.54
2016-09-07T10:24:40.299Z,40.83
2016-09-07T10:25:40.299Z,40.25
2016-09-07T10:26:40.240Z,40.06
2016-09-07T10:27:40.267Z,40.15
2016-09-07T10:28:40.293Z,39.76
2016-09-07T10:29:40.322Z,39.67
2016-09-07T10:30:40.351Z,39.78
2016-09-07T10:31:40.380Z,39.78
2016-09-07T10:32:40.419Z,39.59
2016-09-07T10:33:40.439Z,39.59
2016-09-07T10:34:40.461Z,39.29
2016-09-07T10:35:40.490Z,38.93
2016-09-07T10:36:40.522Z,38.93
2016-09-07T10:37:40.560Z,39.03
2016-09-07T10:38:40.576Z,38.93
2016-09-07T10:39:40.621Z,38.54
2016-09-07T10:40:40.632Z,38.54
2016-09-07T10:41:40.825Z,38.46
2016-09-07T10:42:40.693Z,38.83
2016-09-07T10:43:40.723Z,38.95
2016-09-07T10:44:40.753Z,38.95
2016-09-07T10:45:40.777Z,38.17
2016-09-07T10:46:40.805Z,37.68
2016-09-07T10:47:40.830Z,37.29
2016-09-07T10:48:40.859Z,37.1
2016-09-07T10:49:40.890Z,37.12
2016-09-07T10:50:40.926Z,36.63
2016-09-07T10:51:40.947Z,36.92
2016-09-07T10:52:40.975Z,36.63
2016-09-07T10:53:41.003Z,36.53
2016-09-07T10:54:41.032Z,36.43
2016-09-07T10:55:41.061Z,36.53
2016-09-07T10:56:41.090Z,36.72
2016-09-07T10:57:41.132Z,36.53
2016-09-07T10:58:41.146Z,37.04
2016-09-07T10:59:41.179Z,37.43
2016-09-07T11:00:41.207Z,37.33
2016-09-07T11:01:41.233Z,37.33
2016-09-07T11:02:41.264Z,37.04
2016-09-07T11:03:41.299Z,36.57
2016-09-07T11:04:41.322Z,36.08
2016-09-07T11:05:41.354Z,35.98
2016-09-07T11:06:41.379Z,35.88
2016-09-07T11:07:41.497Z,35.78
2016-09-07T11:08:41.442Z,35.49
2016-09-07T11:09:41.471Z,35.51
2016-09-07T11:10:41.500Z,35.41
2016-09-07T11:11:41.531Z,34.92
2016-09-07T11:12:41.559Z,34.92
2016-09-07T11:13:41.587Z,34.44
2016-09-07T11:14:41.617Z,34.05
2016-09-07T11:15:41.648Z,34.45
2016-09-07T11:16:41.675Z,34.45
2016-09-07T11:17:41.707Z,34.75
2016-09-07T11:18:41.735Z,33.97
2016-09-07T11:19:41.766Z,34.45
2016-09-07T11:20:41.797Z,34.16
2016-09-07T11:21:41.822Z,33.97
2016-09-07T11:22:41.853Z,33.58
2016-09-07T11:23:41.880Z,33.98
2016-09-07T11:24:41.918Z,33.98
2016-09-07T11:25:41.942Z,33.69
2016-09-07T11:26:41.979Z,33.2
2016-09-07T11:27:42.005Z,33.5
2016-09-07T11:28:42.034Z,33.5
2016-09-07T11:29:42.065Z,33.4
2016-09-07T11:30:42.195Z,33.5
2016-09-07T11:31:42.123Z,33.2
2016-09-07T11:32:42.180Z,32.63
2016-09-07T11:33:42.241Z,32.82
2016-09-07T11:34:42.248Z,32.82
2016-09-07T11:35:42.246Z,32.43
2016-09-07T11:36:42.279Z,32.63
2016-09-07T11:37:42.303Z,32.73
2016-09-07T11:38:42.343Z,32.53
2016-09-07T11:39:42.375Z,32.04
2016-09-07T11:40:42.413Z,32.73
2016-09-07T11:41:42.431Z,32.34
2016-09-07T11:42:42.469Z,32.24
2016-09-07T11:43:42.835Z,32.04
2016-09-07T11:44:42.519Z,32.34
2016-09-07T11:45:42.559Z,32.06
2016-09-07T11:46:42.915Z,32.26
2016-09-07T11:47:42.618Z,32.06
2016-09-07T11:48:42.678Z,31.77
2016-09-07T11:49:42.683Z,31.96
2016-09-07T11:50:43.035Z,31.48
2016-09-07T11:51:42.744Z,31.48
2016-09-07T11:52:42.795Z,31.18
2016-09-07T11:53:42.797Z,30.8
2016-09-07T11:54:43.158Z,30.9
2016-09-07T11:55:42.893Z,30.49
2016-09-07T11:56:42.893Z,30.8
2016-09-07T11:57:42.918Z,30.9
2016-09-07T11:58:42.954Z,30.51
2016-09-07T11:59:42.980Z,31.1
2016-09-07T12:00:43.012Z,31.1
2016-09-07T12:01:43.045Z,31.29
2016-09-07T12:02:43.077Z,31.1
2016-09-07T12:03:43.110Z,31.1
2016-09-07T12:04:43.140Z,31.2
2016-09-07T12:05:43.165Z,31.31
2016-09-07T12:06:43.202Z,31.21
2016-09-07T12:07:43.236Z,30.91
2016-09-07T12:08:43.263Z,30.91
2016-09-07T12:09:43.294Z,30.52
2016-09-07T12:10:43.329Z,30.52
2016-09-07T12:11:43.383Z,30.72
2016-09-07T12:12:43.704Z,30.13
2016-09-07T12:13:43.419Z,29.94
2016-09-07T12:14:43.451Z,29.94
2016-09-07T12:15:43.483Z,30.13
2016-09-07T12:16:43.522Z,29.84
2016-09-07T12:17:43.739Z,29.74
2016-09-07T12:18:43.577Z,29.55
2016-09-07T12:19:43.613Z,29.55
2016-09-07T12:20:43.634Z,29.55
2016-09-07T12:21:43.669Z,29.06
2016-09-07T12:22:43.705Z,29.27
2016-09-07T12:23:43.741Z,28.96
2016-09-07T12:24:43.762Z,28.88
2016-09-07T12:25:43.799Z,29.27
2016-09-07T12:26:43.829Z,29.35
2016-09-07T12:27:43.922Z,29.46
2016-09-07T12:28:43.895Z,29.07
2016-09-07T12:29:43.925Z,29.17
2016-09-07T12:30:43.956Z,29.27
2016-09-07T12:31:43.987Z,29.17
2016-09-07T12:32:44.022Z,28.68
2016-09-07T12:33:44.057Z,29.17
2016-09-07T12:34:44.081Z,28.58
2016-09-07T12:35:44.112Z,29.45
2016-09-07T12:36:44.244Z,29.17
2016-09-07T12:37:44.251Z,28.78
2016-09-07T12:38:44.211Z,28.78
2016-09-07T12:39:44.239Z,29.07
2016-09-07T12:40:44.277Z,29.07
2016-09-07T12:41:44.420Z,28.78
2016-09-07T12:42:44.338Z,28.29
2016-09-07T12:43:44.372Z,28.88
2016-09-07T12:44:44.401Z,28.68
2016-09-07T12:45:44.429Z,28.78
2016-09-07T12:46:44.463Z,28.88
2016-09-07T12:47:44.497Z,28.97
2016-09-07T12:48:44.525Z,29.07
2016-09-07T12:49:44.562Z,28.78
2016-09-07T12:50:44.593Z,28.49
2016-09-07T12:51:44.624Z,28.68
2016-09-07T12:52:44.651Z,28.78
2016-09-07T12:53:44.686Z,28.68
2016-09-07T12:54:44.730Z,28.88